Time;durP1;ratioP1;P1;durP2;ratioP2;P2;SDS_P1;SDS_P2;PMS_P1;PMS_P2;Temp;Humidity;BMP_temperature;BMP_pressure;BME280_temperature;BME280_humidity;BME280_pressure;Samples;Min_cycle;Max_cycle;Signal;HPM_P1;HPM_P2
2021/07/16 00:02:17;;;;;;;10.20;2.88;;;;;;;16.47;73.97;102260.38;5071535;28;20110;-57
2021/07/16 00:04:46;;;;;;;12.77;3.05;;;;;;;16.49;74.05;102263.72;5071921;28;20044;-53
2021/07/16 00:07:14;;;;;;;14.32;2.97;;;;;;;16.47;73.97;102254.75;5072328;28;20572;-56
2021/07/16 00:09:42;;;;;;;17.15;3.47;;;;;;;16.48;74.17;102253.59;5072614;28;20127;-58
2021/07/16 00:12:10;;;;;;;12.98;3.05;;;;;;;16.48;74.30;102262.06;5072020;28;20059;-59
2021/07/16 00:14:38;;;;;;;11.25;2.97;;;;;;;16.49;74.48;102263.72;5072613;28;20047;-57
2021/07/16 00:17:06;;;;;;;12.75;3.38;;;;;;;16.48;74.73;102264.88;5072436;28;20060;-53
2021/07/16 00:19:34;;;;;;;13.25;2.90;;;;;;;16.48;74.83;102259.25;5071650;28;20136;-54
2021/07/16 00:22:03;;;;;;;15.20;3.28;;;;;;;16.47;75.09;102260.38;5072280;28;20052;-58
2021/07/16 00:24:31;;;;;;;13.88;3.28;;;;;;;16.47;75.09;102266.84;5070874;28;20040;-55
2021/07/16 00:27:01;;;;;;;11.55;3.00;;;;;;;16.48;75.18;102273.31;5071706;28;20063;-53
2021/07/16 00:29:29;;;;;;;9.43;2.60;;;;;;;16.47;75.27;102268.81;5072135;28;20041;-60
2021/07/16 00:31:57;;;;;;;13.63;3.28;;;;;;;16.47;75.21;102272.47;5071978;28;20465;-60
2021/07/16 00:34:25;;;;;;;11.90;3.33;;;;;;;16.48;75.18;102271.34;5071492;28;20080;-55
2021/07/16 00:36:53;;;;;;;14.50;3.10;;;;;;;16.47;75.01;102266.00;5071915;28;20498;-57
2021/07/16 00:39:22;;;;;;;10.38;2.97;;;;;;;16.47;74.76;102258.41;5071911;28;20037;-54
2021/07/16 00:41:50;;;;;;;10.35;2.95;;;;;;;16.47;74.62;102260.38;5071035;28;20048;-58
2021/07/16 00:44:20;;;;;;;12.50;3.05;;;;;;;16.47;74.85;102257.56;5071847;28;20079;-56
2021/07/16 00:46:48;;;;;;;12.80;2.53;;;;;;;16.46;74.83;102256.72;5071942;28;20054;-59
2021/07/16 00:49:16;;;;;;;11.63;2.80;;;;;;;16.46;74.99;102258.69;5071590;28;20486;-57
2021/07/16 00:51:44;;;;;;;15.35;3.72;;;;;;;16.46;75.14;102247.44;5071505;28;20470;-54
2021/07/16 00:54:12;;;;;;;13.13;3.17;;;;;;;16.49;75.48;102260.91;5071245;28;20048;-55
2021/07/16 00:56:41;;;;;;;11.43;2.63;;;;;;;16.49;75.58;102252.47;5070346;28;20087;-53
2021/07/16 00:59:13;;;;;;;14.15;3.30;;;;;;;16.49;75.85;102256.13;5071215;28;20501;-57
2021/07/16 01:01:41;;;;;;;14.93;3.15;;;;;;;16.48;76.26;102262.06;5070925;28;20522;-59
2021/07/16 01:04:09;;;;;;;17.05;3.45;;;;;;;16.47;76.29;102261.22;5071615;28;20490;-56
2021/07/16 01:06:37;;;;;;;13.75;3.00;;;;;;;16.46;76.59;102267.16;5071578;28;20056;-57
2021/07/16 01:09:06;;;;;;;13.45;2.88;;;;;;;16.47;76.72;102263.19;5070272;28;20075;-55
2021/07/16 01:11:34;;;;;;;14.85;2.90;;;;;;;16.46;76.89;102262.34;5071499;28;20142;-56
2021/07/16 01:14:04;;;;;;;13.50;3.45;;;;;;;16.46;76.97;102258.69;5071291;28;20536;-54
2021/07/16 01:16:31;;;;;;;14.57;2.88;;;;;;;16.47;77.02;102252.75;5070837;28;20147;-53
2021/07/16 01:19:01;;;;;;;16.92;3.03;;;;;;;16.48;77.29;102259.25;5071236;28;20057;-53
2021/07/16 01:21:33;;;;;;;13.85;3.17;;;;;;;16.47;77.03;102257.56;5071203;28;20052;-52
2021/07/16 01:24:03;;;;;;;17.45;3.47;;;;;;;16.44;77.15;102255.34;5069192;28;20456;-56
2021/07/16 01:26:31;;;;;;;14.60;3.20;;;;;;;16.42;77.04;102252.84;5071228;28;20131;-56
2021/07/16 01:29:02;;;;;;;11.68;2.70;;;;;;;16.41;77.02;102251.16;5071319;28;20502;-59
2021/07/16 01:31:31;;;;;;;12.77;2.40;;;;;;;16.41;77.01;102250.31;5071326;28;20139;-59
2021/07/16 01:33:59;;;;;;;13.55;2.95;;;;;;;16.39;76.89;102252.59;5070968;28;20576;-56
2021/07/16 01:36:27;;;;;;;19.23;3.70;;;;;;;16.36;76.42;102241.97;5070263;28;20121;-56
2021/07/16 01:38:55;;;;;;;12.32;2.58;;;;;;;16.34;76.02;102244.25;5070191;28;20078;-55
2021/07/16 01:41:24;;;;;;;12.43;2.80;;;;;;;16.34;76.05;102245.09;5070863;28;20059;-55
2021/07/16 01:43:52;;;;;;;15.75;3.78;;;;;;;16.34;76.23;102238.63;5070519;28;20036;-55
2021/07/16 01:46:20;;;;;;;12.73;2.40;;;;;;;16.34;76.40;102239.44;5059810;28;20428;-57
2021/07/16 01:48:47;;;;;;;16.75;3.40;;;;;;;16.35;76.63;102241.13;5069482;28;20412;-55
2021/07/16 01:51:15;;;;;;;14.88;3.05;;;;;;;16.36;76.71;102247.59;5069099;28;20037;-53
2021/07/16 01:53:43;;;;;;;19.02;3.30;;;;;;;16.36;76.84;102245.63;5067273;28;20036;-55
2021/07/16 01:56:12;;;;;;;16.15;3.72;;;;;;;16.36;76.92;102247.59;5071064;28;20118;-56
2021/07/16 01:58:41;;;;;;;12.57;2.63;;;;;;;16.35;77.04;102245.91;5068891;28;20048;-56
2021/07/16 02:01:14;;;;;;;16.75;3.63;;;;;;;16.34;76.96;102247.06;5070855;28;20048;-56
2021/07/16 02:03:45;;;;;;;15.27;3.55;;;;;;;16.32;76.80;102241.72;5070592;28;20080;-57
2021/07/16 02:06:14;;;;;;;14.18;3.03;;;;;;;16.29;76.68;102233.88;5070358;28;20102;-54
2021/07/16 02:08:41;;;;;;;15.27;3.42;;;;;;;16.29;76.64;102233.03;5070517;28;20044;-55
2021/07/16 02:11:09;;;;;;;16.75;3.30;;;;;;;16.29;76.53;102239.50;5070825;28;20091;-57
2021/07/16 02:13:37;;;;;;;10.13;2.28;;;;;;;16.28;76.41;102237.00;5070149;28;20070;-60
2021/07/16 02:16:07;;;;;;;15.50;2.95;;;;;;;16.25;76.40;102240.41;5070408;28;20102;-57
2021/07/16 02:18:35;;;;;;;19.98;3.22;;;;;;;16.22;76.34;102230.59;5070171;28;20071;-56
2021/07/16 02:21:02;;;;;;;23.63;3.35;;;;;;;16.18;76.57;102233.22;5071632;28;20072;-53
2021/07/16 02:23:31;;;;;;;15.65;2.65;;;;;;;16.16;76.93;102229.00;5074601;28;20064;-56
2021/07/16 02:25:59;;;;;;;16.23;3.20;;;;;;;16.17;77.11;102236.31;5074054;28;20108;-53
2021/07/16 02:28:29;;;;;;;18.90;3.78;;;;;;;16.14;77.49;102229.31;5074429;28;20166;-52
2021/07/16 02:30:57;;;;;;;16.20;3.15;;;;;;;16.13;77.69;102230.47;5074306;28;20485;-56
2021/07/16 02:33:27;;;;;;;16.75;2.78;;;;;;;16.09;77.87;102229.38;5073979;28;20528;-53
2021/07/16 02:35:55;;;;;;;14.98;3.08;;;;;;;16.10;78.08;102236.69;5073060;28;20461;-53
2021/07/16 02:38:23;;;;;;;19.30;3.20;;;;;;;16.10;78.66;102239.50;5073811;28;20080;-57
2021/07/16 02:40:52;;;;;;;15.93;3.38;;;;;;;16.08;78.88;102253.06;5072466;28;20057;-52
2021/07/16 02:43:20;;;;;;;19.33;2.90;;;;;;;16.09;79.14;102254.72;5074074;28;20076;-57
2021/07/16 02:45:49;;;;;;;20.17;3.30;;;;;;;16.07;79.27;102250.53;5073993;28;20086;-58
2021/07/16 02:48:17;;;;;;;16.60;3.60;;;;;;;16.04;79.37;102242.69;5073539;28;20052;-54
2021/07/16 02:50:48;;;;;;;16.65;2.58;;;;;;;16.02;79.29;102247.78;5074014;28;20040;-56
2021/07/16 02:53:20;;;;;;;15.35;3.42;;;;;;;16.00;79.50;102245.25;5074018;28;20045;-56
2021/07/16 02:55:50;;;;;;;14.27;2.97;;;;;;;15.97;79.50;102248.72;5069760;28;20191;-56
2021/07/16 02:58:17;;;;;;;15.40;2.92;;;;;;;15.97;79.54;102242.25;5070732;28;20044;-57
2021/07/16 03:00:46;;;;;;;20.10;3.20;;;;;;;15.97;79.52;102245.06;5073198;28;20084;-57
2021/07/16 03:03:14;;;;;;;15.18;3.25;;;;;;;15.93;79.64;102246.78;5073462;28;20041;-57
2021/07/16 03:05:42;;;;;;;19.00;3.22;;;;;;;15.90;79.77;102247.38;5073641;28;20155;-55
2021/07/16 03:08:12;;;;;;;12.10;2.58;;;;;;;15.85;79.86;102249.13;5073023;28;20052;-53
2021/07/16 03:10:43;;;;;;;16.85;3.20;;;;;;;15.83;79.93;102247.75;5073490;28;20460;-56
2021/07/16 03:13:13;;;;;;;14.95;2.83;;;;;;;15.79;80.05;102255.94;5073959;28;20036;-57
2021/07/16 03:15:41;;;;;;;18.60;3.47;;;;;;;15.77;80.00;102251.78;5068488;28;20090;-53
2021/07/16 03:18:10;;;;;;;21.42;3.47;;;;;;;15.76;80.09;102250.09;5073426;28;20076;-57
2021/07/16 03:20:40;;;;;;;11.75;2.50;;;;;;;15.75;80.35;102254.06;5073098;28;20036;-56
2021/07/16 03:23:11;;;;;;;14.52;2.92;;;;;;;15.72;80.44;102263.94;5072915;28;20078;-60
2021/07/16 03:25:40;;;;;;;19.77;3.53;;;;;;;15.69;80.43;102258.06;5071846;28;20037;-56
2021/07/16 03:28:09;;;;;;;16.80;3.30;;;;;;;15.66;80.41;102264.28;5073156;28;20045;-56
2021/07/16 03:30:38;;;;;;;16.92;3.10;;;;;;;15.62;80.44;102260.38;5072524;28;20082;-57
2021/07/16 03:33:06;;;;;;;12.70;3.00;;;;;;;15.60;80.57;102257.03;5071929;28;20055;-58
2021/07/16 03:35:34;;;;;;;16.05;3.00;;;;;;;15.59;80.56;102252.56;5073423;28;20048;-57
2021/07/16 03:38:04;;;;;;;15.35;3.25;;;;;;;15.60;80.58;102259.84;5071083;28;20455;-54
2021/07/16 03:40:33;;;;;;;12.95;3.13;;;;;;;15.62;80.62;102257.56;5072565;28;20155;-55
2021/07/16 03:43:01;;;;;;;12.70;2.92;;;;;;;15.64;80.80;102266.56;5071932;28;20082;-57
2021/07/16 03:45:34;;;;;;;20.63;3.75;;;;;;;15.65;80.86;102263.44;5072534;28;20041;-55
2021/07/16 03:48:02;;;;;;;14.98;3.20;;;;;;;15.66;80.83;102269.91;5072892;28;20040;-55
2021/07/16 03:50:30;;;;;;;18.88;3.30;;;;;;;15.65;80.76;102265.41;5072662;28;20079;-55
2021/07/16 03:52:57;;;;;;;14.82;3.03;;;;;;;15.64;80.95;102264.59;5072894;28;20094;-56
2021/07/16 03:55:25;;;;;;;19.23;4.15;;;;;;;15.65;80.77;102271.06;5072743;28;20396;-57
2021/07/16 03:57:54;;;;;;;17.05;3.03;;;;;;;15.65;80.75;102271.88;5072243;28;20040;-57
2021/07/16 04:00:27;;;;;;;15.63;2.78;;;;;;;15.65;80.63;102274.69;5069067;28;20058;-56
2021/07/16 04:02:55;;;;;;;15.25;3.00;;;;;;;15.63;80.80;102257.28;5072122;28;20048;-58
2021/07/16 04:05:24;;;;;;;14.30;3.15;;;;;;;15.65;80.86;102266.25;5071205;28;20128;-58
2021/07/16 04:08:00;;;;;;;14.25;2.50;;;;;;;15.67;81.04;102274.41;5072675;28;20056;-58
2021/07/16 04:10:29;;;;;;;15.02;3.42;;;;;;;15.68;81.15;102278.91;5072591;28;20159;-54
2021/07/16 04:13:00;;;;;;;15.90;3.45;;;;;;;15.70;81.26;102277.47;5071855;28;20453;-58
2021/07/16 04:15:28;;;;;;;15.80;2.92;;;;;;;15.74;81.21;102278.56;5072470;28;20106;-57
2021/07/16 04:17:57;;;;;;;17.90;3.42;;;;;;;15.76;81.25;102279.09;5071862;28;20040;-58
2021/07/16 04:20:26;;;;;;;17.80;2.92;;;;;;;15.77;81.11;102279.94;5072427;28;20062;-58
2021/07/16 04:22:54;;;;;;;16.92;3.50;;;;;;;15.77;81.48;102279.94;5067498;28;20099;-57
2021/07/16 04:25:23;;;;;;;16.20;3.85;;;;;;;15.78;81.57;102284.44;5071343;28;20052;-56
2021/07/16 04:27:53;;;;;;;22.25;3.83;;;;;;;15.77;81.51;102279.94;5072230;28;20048;-55
2021/07/16 04:30:23;;;;;;;14.45;2.70;;;;;;;15.77;81.45;102285.56;5072201;28;20480;-53
2021/07/16 04:32:54;;;;;;;18.15;3.38;;;;;;;15.78;81.61;102284.44;5071589;28;20485;-56
2021/07/16 04:35:22;;;;;;;18.23;3.35;;;;;;;15.79;81.75;102291.69;5071918;28;20064;-57
2021/07/16 04:37:50;;;;;;;16.90;3.22;;;;;;;15.81;81.75;102287.44;5071849;28;20554;-56
2021/07/16 04:40:20;;;;;;;16.88;3.53;;;;;;;15.86;81.93;102292.19;5071501;28;20123;-56
2021/07/16 04:42:49;;;;;;;20.75;3.72;;;;;;;15.90;81.78;102296.09;5072069;28;20102;-52
2021/07/16 04:45:17;;;;;;;18.15;4.03;;;;;;;15.94;82.06;102304.78;5071533;28;20386;-58
2021/07/16 04:47:47;;;;;;;22.20;3.78;;;;;;;15.95;81.97;102300.81;5071101;28;20102;-56
2021/07/16 04:50:17;;;;;;;21.00;3.67;;;;;;;15.97;82.02;102290.09;5071708;28;20401;-54
2021/07/16 04:52:47;;;;;;;13.73;2.85;;;;;;;15.97;82.18;102288.13;5071658;28;20570;-56
2021/07/16 04:55:15;;;;;;;14.80;2.92;;;;;;;16.00;82.17;102287.50;5060627;28;20040;-59
2021/07/16 04:57:44;;;;;;;17.90;3.47;;;;;;;16.04;82.25;102285.75;5060650;28;20048;-50
2021/07/16 05:00:13;;;;;;;13.70;3.20;;;;;;;16.09;82.11;102291.34;5071005;28;20045;-57
2021/07/16 05:02:41;;;;;;;20.17;3.55;;;;;;;16.12;81.81;102290.75;5071205;28;20091;-57
2021/07/16 05:05:11;;;;;;;18.60;3.45;;;;;;;16.14;81.76;102294.09;5071725;28;20036;-57
2021/07/16 05:07:40;;;;;;;17.92;3.75;;;;;;;16.18;81.70;102295.16;5071106;28;20497;-60
2021/07/16 05:10:09;;;;;;;12.88;3.22;;;;;;;16.20;81.42;102290.03;5071698;28;20046;-57
2021/07/16 05:12:37;;;;;;;17.40;3.78;;;;;;;16.24;81.37;102292.25;5070246;28;20127;-58
2021/07/16 05:15:06;;;;;;;14.60;2.97;;;;;;;16.25;81.40;102291.97;5070640;28;20072;-55
2021/07/16 05:17:34;;;;;;;16.08;3.70;;;;;;;16.26;81.36;102287.16;5071320;28;20139;-55
2021/07/16 05:20:02;;;;;;;16.73;3.22;;;;;;;16.29;81.38;102286.56;5071286;28;20044;-53
2021/07/16 05:22:31;;;;;;;13.75;3.22;;;;;;;16.32;81.20;102291.59;5070725;28;20519;-57
2021/07/16 05:24:59;;;;;;;16.75;3.20;;;;;;;16.36;81.12;102289.84;5069901;28;20469;-58
2021/07/16 05:27:27;;;;;;;13.82;3.38;;;;;;;16.38;81.01;102288.41;5071065;28;20127;-58
2021/07/16 05:29:55;;;;;;;19.25;3.17;;;;;;;16.43;81.14;102279.88;5070870;28;20452;-57
2021/07/16 05:32:22;;;;;;;11.68;3.35;;;;;;;16.50;81.12;102280.34;5071185;28;20045;-56
2021/07/16 05:34:50;;;;;;;17.48;3.13;;;;;;;16.59;81.19;102280.47;5071122;28;20049;-57
2021/07/16 05:37:18;;;;;;;16.42;3.85;;;;;;;16.67;80.89;102288.28;5070384;28;20140;-54
2021/07/16 05:39:47;;;;;;;20.48;3.97;;;;;;;16.72;80.47;102281.72;5070264;28;20113;-53
2021/07/16 05:42:15;;;;;;;14.73;3.55;;;;;;;16.76;80.18;102285.63;5067517;28;20044;-55
2021/07/16 05:44:43;;;;;;;19.85;4.03;;;;;;;16.81;80.11;102283.53;5070949;28;20072;-58
2021/07/16 05:47:11;;;;;;;19.17;4.05;;;;;;;16.88;79.99;102295.28;5069851;28;20139;-57
2021/07/16 05:49:38;;;;;;;14.98;3.53;;;;;;;16.91;79.77;102295.81;5070175;28;20152;-55
2021/07/16 05:52:07;;;;;;;20.23;3.60;;;;;;;16.92;79.63;102289.03;5070893;28;20040;-56
2021/07/16 05:54:34;;;;;;;20.30;3.50;;;;;;;16.95;79.47;102296.88;5070673;28;20375;-53
2021/07/16 05:57:04;;;;;;;15.65;3.47;;;;;;;17.07;79.38;102303.69;5069158;28;20489;-55
2021/07/16 05:59:32;;;;;;;16.17;3.38;;;;;;;17.16;79.00;102298.19;5071177;28;20116;-58
2021/07/16 06:02:01;;;;;;;20.25;3.53;;;;;;;17.23;78.93;102309.91;5067414;28;20110;-57
2021/07/16 06:04:30;;;;;;;16.98;3.58;;;;;;;17.37;78.92;102307.97;5066615;28;20461;-56
2021/07/16 06:06:58;;;;;;;19.13;3.65;;;;;;;17.62;78.87;102314.28;5070554;28;20455;-54
2021/07/16 06:09:27;;;;;;;17.98;3.22;;;;;;;17.82;78.34;102314.75;5070665;28;20086;-58
2021/07/16 06:11:55;;;;;;;18.42;3.75;;;;;;;17.92;77.56;102312.88;5067298;28;20372;-55
2021/07/16 06:14:25;;;;;;;16.95;3.50;;;;;;;17.91;76.95;102312.03;5070300;28;20086;-56
2021/07/16 06:16:53;;;;;;;15.07;3.25;;;;;;;17.83;76.60;102321.22;5070395;28;20048;-55
2021/07/16 06:19:24;;;;;;;16.70;3.45;;;;;;;17.72;76.60;102311.31;5069275;28;20481;-53
2021/07/16 06:21:52;;;;;;;18.30;3.42;;;;;;;17.65;76.21;102324.97;5070146;28;20185;-52
2021/07/16 06:24:20;;;;;;;17.45;3.10;;;;;;;17.63;76.64;102321.59;5070320;28;20140;-55
2021/07/16 06:26:48;;;;;;;12.85;3.17;;;;;;;17.66;76.53;102332.31;5070079;28;20041;-54
2021/07/16 06:29:16;;;;;;;18.00;3.65;;;;;;;17.66;77.07;102333.13;5070899;28;20052;-56
2021/07/16 06:31:45;;;;;;;17.30;3.13;;;;;;;17.65;76.75;102337.09;5069851;28;20048;-55
2021/07/16 06:34:13;;;;;;;18.02;3.55;;;;;;;17.60;76.32;102337.16;5070370;28;20044;-56
2021/07/16 06:36:41;;;;;;;16.38;3.72;;;;;;;17.55;76.41;102338.13;5070043;28;20052;-53
2021/07/16 06:39:10;;;;;;;19.73;4.22;;;;;;;17.55;76.26;102340.94;5070107;28;20131;-55
2021/07/16 06:41:37;;;;;;;11.90;3.45;;;;;;;17.58;76.72;102338.66;5070430;28;20114;-53
2021/07/16 06:44:07;;;;;;;17.23;3.78;;;;;;;17.64;76.68;102346.72;5070323;28;20124;-54
2021/07/16 06:46:35;;;;;;;15.45;3.38;;;;;;;17.79;76.39;102340.78;5069924;28;20053;-53
2021/07/16 06:49:05;;;;;;;19.70;4.45;;;;;;;18.07;76.29;102340.81;5070047;28;20067;-56
2021/07/16 06:51:33;;;;;;;15.60;3.55;;;;;;;18.23;75.90;102345.81;5070432;28;20048;-52
2021/07/16 06:54:02;;;;;;;22.10;3.47;;;;;;;18.31;75.30;102349.06;5069924;28;20477;-56
2021/07/16 06:56:30;;;;;;;16.73;3.50;;;;;;;18.28;75.36;102352.53;5062310;28;20135;-55
2021/07/16 06:58:59;;;;;;;14.52;3.28;;;;;;;18.25;75.31;102349.16;5070208;28;20536;-56
2021/07/16 07:01:26;;;;;;;14.43;3.08;;;;;;;18.21;74.67;102350.94;5069768;28;20040;-57
2021/07/16 07:03:59;;;;;;;16.20;3.40;;;;;;;18.16;74.64;102353.91;5069691;28;20053;-56
2021/07/16 07:06:28;;;;;;;20.05;3.53;;;;;;;18.15;75.05;102349.41;5069572;28;20072;-55
2021/07/16 07:08:56;;;;;;;19.60;4.10;;;;;;;18.15;75.03;102357.88;5072002;28;20135;-56
2021/07/16 07:11:24;;;;;;;15.63;3.47;;;;;;;18.18;75.06;102348.78;5073709;28;20087;-56
2021/07/16 07:13:52;;;;;;;13.35;3.40;;;;;;;18.32;75.39;102350.75;5072902;28;20048;-54
2021/07/16 07:16:20;;;;;;;20.23;3.53;;;;;;;18.60;75.44;102358.03;5073704;28;20105;-57
2021/07/16 07:18:47;;;;;;;16.27;3.90;;;;;;;18.93;74.15;102353.88;5073605;28;20132;-57
2021/07/16 07:21:15;;;;;;;16.45;4.07;;;;;;;19.17;73.25;102344.25;5072988;28;20469;-58
2021/07/16 07:23:45;;;;;;;17.77;3.50;;;;;;;19.20;72.62;102350.09;5073477;28;20040;-55
2021/07/16 07:26:13;;;;;;;20.85;4.15;;;;;;;19.18;72.15;102358.06;5073349;28;20092;-58
2021/07/16 07:28:40;;;;;;;18.98;3.95;;;;;;;19.16;72.06;102359.56;5073002;28;20440;-55
2021/07/16 07:31:08;;;;;;;12.98;3.42;;;;;;;19.17;72.38;102361.25;5073496;28;20075;-60
2021/07/16 07:33:36;;;;;;;13.70;3.78;;;;;;;19.26;72.40;102364.97;5071993;28;20044;-61
2021/07/16 07:36:04;;;;;;;15.10;3.70;;;;;;;19.41;72.04;102370.22;5072425;28;20467;-55
2021/07/16 07:38:34;;;;;;;16.50;3.60;;;;;;;19.59;70.42;102362.72;5072113;28;20083;-59
2021/07/16 07:41:05;;;;;;;14.00;3.42;;;;;;;19.65;70.09;102361.41;5070991;28;20065;-56
2021/07/16 07:43:33;;;;;;;12.98;3.10;;;;;;;19.57;69.59;102363.06;5070962;28;20063;-52
2021/07/16 07:46:01;;;;;;;15.93;3.78;;;;;;;19.53;69.70;102370.53;5071107;28;20029;-56
2021/07/16 07:48:28;;;;;;;15.63;3.45;;;;;;;19.62;70.22;102364.91;5071130;28;20106;-58
2021/07/16 07:50:57;;;;;;;20.25;4.20;;;;;;;19.66;69.90;102370.75;5070281;28;20135;-57
2021/07/16 07:53:25;;;;;;;17.15;3.92;;;;;;;19.59;70.40;102366.38;5071614;28;20497;-57
2021/07/16 07:55:53;;;;;;;14.70;3.63;;;;;;;19.49;69.92;102363.78;5072445;28;20040;-53
2021/07/16 07:58:22;;;;;;;17.17;3.95;;;;;;;19.37;70.19;102377.72;5072906;28;20101;-56
2021/07/16 08:00:50;;;;;;;12.73;3.33;;;;;;;19.41;70.26;102372.22;5072989;28;20055;-57
2021/07/16 08:03:18;;;;;;;16.27;3.78;;;;;;;19.45;70.22;102368.44;5070934;28;20054;-56
2021/07/16 08:05:46;;;;;;;19.08;3.92;;;;;;;19.51;70.06;102378.50;5072667;28;20147;-57
2021/07/16 08:08:13;;;;;;;15.82;3.65;;;;;;;19.51;69.17;102381.34;5072393;28;20049;-58
2021/07/16 08:10:41;;;;;;;21.80;4.15;;;;;;;19.61;69.46;102383.03;5071983;28;20087;-56
2021/07/16 08:13:09;;;;;;;16.98;3.22;;;;;;;19.72;69.31;102400.63;5072576;28;20055;-58
2021/07/16 08:15:38;;;;;;;16.95;3.92;;;;;;;20.03;69.55;102390.13;5072972;28;20055;-58
2021/07/16 08:18:06;;;;;;;14.05;3.60;;;;;;;20.29;68.11;102402.41;5071494;28;20051;-60
2021/07/16 08:20:34;;;;;;;21.90;4.75;;;;;;;20.37;67.76;102397.13;5072014;28;20071;-59
2021/07/16 08:23:02;;;;;;;15.57;3.58;;;;;;;20.51;67.57;102392.16;5072503;28;20067;-54
2021/07/16 08:25:30;;;;;;;16.20;3.75;;;;;;;20.61;66.96;102391.84;5071903;28;20048;-58
2021/07/16 08:27:58;;;;;;;15.45;3.45;;;;;;;20.63;67.06;102401.69;5072300;28;20057;-53
2021/07/16 08:30:26;;;;;;;16.45;3.92;;;;;;;20.56;67.21;102401.38;5072142;28;20588;-54
2021/07/16 08:32:55;;;;;;;20.45;4.00;;;;;;;20.54;67.89;102400.84;5071478;28;20048;-57
2021/07/16 08:35:23;;;;;;;19.20;4.00;;;;;;;20.59;68.25;102402.69;5071787;28;20051;-59
2021/07/16 08:37:51;;;;;;;18.17;3.70;;;;;;;20.64;67.68;102402.53;5071895;28;20476;-55
2021/07/16 08:40:21;;;;;;;15.07;4.15;;;;;;;20.57;67.41;102402.22;5070208;28;20475;-57
2021/07/16 08:42:50;;;;;;;16.55;4.07;;;;;;;20.47;67.58;102411.84;5071910;28;20068;-58
2021/07/16 08:45:17;;;;;;;16.35;3.42;;;;;;;20.35;67.82;102396.59;5060297;28;20128;-57
2021/07/16 08:47:47;;;;;;;13.35;3.65;;;;;;;20.26;67.66;102408.72;5071595;28;20045;-60
2021/07/16 08:50:16;;;;;;;21.95;3.60;;;;;;;20.32;67.91;102414.25;5071767;28;20044;-56
2021/07/16 08:52:46;;;;;;;18.63;3.72;;;;;;;20.50;67.54;102407.50;5071512;28;20109;-58
2021/07/16 08:55:18;;;;;;;21.50;4.57;;;;;;;20.65;67.27;102415.56;5068492;28;20040;-58
2021/07/16 08:57:45;;;;;;;;;;;;;;;20.54;66.33;102409.38;5072066;28;20490;-57
2021/07/16 09:00:14;;;;;;;13.48;3.55;;;;;;;20.70;67.89;102404.06;5071043;28;19921;-58
2021/07/16 09:02:54;;;;;;;17.40;4.07;;;;;;;20.88;66.36;102405.75;5071327;28;20068;-58
2021/07/16 09:05:36;;;;;;;15.82;3.83;;;;;;;20.85;66.48;102394.22;5070481;28;20045;-58
2021/07/16 09:08:05;;;;;;;22.02;4.70;;;;;;;20.73;67.04;102409.06;5069921;28;20036;-58
2021/07/16 09:10:33;;;;;;;16.08;3.58;;;;;;;20.63;67.28;102404.53;5069343;28;20041;-55
2021/07/16 09:13:03;;;;;;;20.33;4.15;;;;;;;20.55;67.76;102401.69;5071184;28;20041;-59
2021/07/16 09:15:31;;;;;;;15.68;4.10;;;;;;;20.64;67.73;102397.69;5070725;28;20129;-58
2021/07/16 09:18:22;;;;;;;17.92;4.13;;;;;;;20.74;66.36;102404.25;5071425;28;20128;-61
2021/07/16 09:21:05;;;;;;;20.88;4.80;;;;;;;20.77;66.83;102406.41;5070421;28;20119;-53
2021/07/16 09:23:35;;;;;;;16.30;3.50;;;;;;;20.85;67.14;102412.09;5070535;28;20051;-56
2021/07/16 09:26:08;;;;;;;18.70;3.72;;;;;;;20.99;66.49;102404.25;5068581;28;20090;-58
2021/07/16 09:28:38;;;;;;;17.73;3.88;;;;;;;21.07;65.61;102405.44;5070608;28;20072;-57
2021/07/16 09:31:17;;;;;;;18.42;4.13;;;;;;;21.07;66.33;102404.59;5070329;28;20098;-58
2021/07/16 09:33:48;;;;;;;17.23;3.65;;;;;;;21.07;66.09;102402.59;5071067;28;20490;-57
2021/07/16 09:36:25;;;;;;;19.75;4.20;;;;;;;21.16;65.70;102414.81;5070705;28;20182;-55
2021/07/16 09:38:55;;;;;;;18.67;4.25;;;;;;;21.24;65.67;102407.47;5070820;28;20076;-52
2021/07/16 09:41:23;;;;;;;18.02;4.00;;;;;;;21.39;66.02;102411.81;5070542;28;20114;-56
2021/07/16 09:43:52;;;;;;;19.20;4.35;;;;;;;21.52;65.62;102399.44;5070673;28;20488;-58
2021/07/16 09:46:20;;;;;;;15.07;3.92;;;;;;;21.71;65.27;102410.44;5069480;28;20089;-57
2021/07/16 09:48:48;;;;;;;16.40;3.40;;;;;;;21.88;64.75;102416.09;5069322;28;20052;-56
2021/07/16 09:51:18;;;;;;;16.73;3.38;;;;;;;21.90;64.23;102414.56;5071020;28;20036;-58
2021/07/16 09:53:49;;;;;;;20.77;4.13;;;;;;;21.81;64.50;102424.28;5071164;28;20049;-60
2021/07/16 09:56:20;;;;;;;16.58;4.22;;;;;;;21.78;63.85;102425.78;5070440;28;20515;-53
2021/07/16 09:58:49;;;;;;;16.20;3.88;;;;;;;21.73;63.92;102419.47;5070923;28;20086;-60
2021/07/16 10:01:17;;;;;;;17.10;3.65;;;;;;;21.63;64.25;102426.31;5070952;28;20811;-59
2021/07/16 10:03:45;;;;;;;19.48;3.97;;;;;;;21.56;64.40;102432.53;5070231;28;20486;-60
2021/07/16 10:06:15;;;;;;;19.10;3.97;;;;;;;21.56;64.43;102438.22;5070502;28;20078;-59
2021/07/16 10:08:43;;;;;;;16.52;4.15;;;;;;;21.62;64.48;102436.00;5070695;28;20052;-60
2021/07/16 10:11:19;;;;;;;19.83;3.97;;;;;;;21.62;63.89;102424.66;5070200;28;20054;-57
2021/07/16 10:13:49;;;;;;;18.10;4.50;;;;;;;21.61;63.71;102438.03;5070934;28;20059;-55
2021/07/16 10:16:18;;;;;;;22.83;4.10;;;;;;;21.61;64.40;102443.69;5070774;28;20040;-60
2021/07/16 10:18:45;;;;;;;16.08;3.83;;;;;;;21.60;64.63;102447.72;5070271;28;20076;-57
2021/07/16 10:21:13;;;;;;;15.77;3.90;;;;;;;21.54;64.02;102451.91;5070589;28;20111;-60
2021/07/16 10:23:41;;;;;;;16.15;3.85;;;;;;;21.42;64.43;102443.22;5069981;28;20123;-58
2021/07/16 10:26:13;;;;;;;19.15;3.75;;;;;;;21.33;64.80;102444.41;5070542;28;20390;-59
2021/07/16 10:28:42;;;;;;;16.75;3.65;;;;;;;21.33;65.62;102445.25;5070638;28;20109;-56
2021/07/16 10:31:33;;;;;;;16.83;3.88;;;;;;;21.45;64.22;102444.56;5069915;28;20040;-56
2021/07/16 10:34:03;;;;;;;13.48;3.50;;;;;;;21.56;65.07;102455.25;5059997;28;20048;-56
2021/07/16 10:36:44;;;;;;;19.98;3.85;;;;;;;21.60;64.40;102456.22;5059710;28;20041;-57
2021/07/16 10:39:14;;;;;;;15.55;4.25;;;;;;;21.59;64.54;102459.41;5060241;28;20076;-59
2021/07/16 10:41:43;;;;;;;15.95;3.65;;;;;;;21.53;64.20;102470.13;5070632;28;20056;-57
2021/07/16 10:44:14;;;;;;;17.30;3.80;;;;;;;21.45;64.54;102458.75;5074145;28;20123;-53
2021/07/16 10:46:44;;;;;;;14.73;3.75;;;;;;;21.54;64.46;102457.59;5073319;28;20086;-58
2021/07/16 10:49:14;;;;;;;16.90;3.65;;;;;;;21.66;64.58;102454.91;5074391;28;20059;-54
2021/07/16 10:51:42;;;;;;;15.77;4.32;;;;;;;21.75;64.26;102456.91;5070688;28;20083;-58
2021/07/16 10:54:11;;;;;;;14.75;3.53;;;;;;;21.84;64.13;102454.88;5070954;28;20147;-56
2021/07/16 10:56:43;;;;;;;17.58;3.67;;;;;;;21.90;63.63;102459.22;5073028;28;20048;-52
2021/07/16 10:59:45;;;;;;;19.73;3.83;;;;;;;21.94;62.99;102448.84;5071062;28;20454;-60
2021/07/16 11:02:32;;;;;;;;;;;;;;;21.83;63.15;102459.72;5074432;28;20040;-59
2021/07/16 11:05:00;;;;;;;14.48;3.88;;;;;;;21.81;63.52;102453.53;5063410;28;20002;-56
2021/07/16 11:07:35;;;;;;;11.65;3.35;;;;;;;21.80;63.71;102456.72;5073105;28;20037;-57
2021/07/16 11:10:05;;;;;;;14.75;3.63;;;;;;;21.86;64.09;102466.75;5073608;28;20489;-56
2021/07/16 11:12:35;;;;;;;15.40;3.90;;;;;;;21.96;63.67;102464.41;5073950;28;20136;-58
2021/07/16 11:15:06;;;;;;;21.40;4.72;;;;;;;21.98;63.54;102472.59;5073155;28;20044;-57
2021/07/16 11:17:37;;;;;;;19.30;3.95;;;;;;;21.99;63.50;102462.84;5070491;28;20048;-60
2021/07/16 11:20:13;;;;;;;18.98;4.07;;;;;;;22.05;62.96;102464.38;5070290;28;20052;-58
2021/07/16 11:23:02;;;;;;;15.63;3.88;;;;;;;22.20;63.12;102469.53;5070262;28;20068;-57
2021/07/16 11:25:34;;;;;;;19.17;3.78;;;;;;;22.40;63.41;102478.50;5072909;28;20049;-59
2021/07/16 11:28:02;;;;;;;15.75;4.28;;;;;;;22.48;62.95;102471.94;5072963;28;20124;-62